Time;durP1;ratioP1;P1;durP2;ratioP2;P2;SDS_P1;SDS_P2;PMS_P1;PMS_P2;Temp;Humidity;BMP_temperature;BMP_pressure;BME280_temperature;BME280_humidity;BME280_pressure;Samples;Min_cycle;Max_cycle;Signal;HPM_P1;HPM_P2
2023/05/09 00:01:30;;;;;;;12.63;6.43;;;;;;;;;;5025222;28;20583;-80
2023/05/09 00:03:58;;;;;;;14.20;7.55;;;;;;;;;;5034653;28;20033;-80
2023/05/09 00:06:24;;;;;;;19.17;6.95;;;;;;;;;;5022271;28;20060;-80
2023/05/09 00:08:50;;;;;;;9.93;5.90;;;12.80;99.90;;;;;;5019489;28;20648;-80
2023/05/09 00:11:16;;;;;;;15.40;7.78;;;;;;;;;;5022142;28;20064;-80
2023/05/09 00:13:43;;;;;;;13.63;7.05;;;;;;;;;;5026268;28;20408;-80
2023/05/09 00:16:09;;;;;;;13.15;7.53;;;;;;;;;;5021946;28;20077;-80
2023/05/09 00:18:36;;;;;;;14.88;7.00;;;13.00;99.90;;;;;;5022282;28;20880;-80
2023/05/09 00:21:03;;;;;;;12.23;6.55;;;;;;;;;;5022010;28;20378;-80
2023/05/09 00:23:29;;;;;;;9.88;6.65;;;13.40;99.90;;;;;;5020413;28;20026;-80
2023/05/09 00:25:55;;;;;;;12.32;6.78;;;13.50;99.90;;;;;;5020261;28;20057;-80
2023/05/09 00:28:21;;;;;;;10.52;5.85;;;;;;;;;;5028200;28;20037;-80
2023/05/09 00:30:47;;;;;;;14.48;7.13;;;;;;;;;;5024684;28;20084;-80
2023/05/09 00:33:13;;;;;;;11.52;5.35;;;;;;;;;;5027649;28;20112;-80
2023/05/09 00:35:39;;;;;;;10.38;5.15;;;;;;;;;;5024355;28;20457;-80
2023/05/09 00:38:05;;;;;;;12.82;6.55;;;;;;;;;;5019803;28;20509;-80
2023/05/09 00:40:31;;;;;;;10.75;5.82;;;;;;;;;;5024900;28;20030;-80
2023/05/09 00:43:00;;;;;;;11.52;6.10;;;;;;;;;;5026433;28;20037;-80
2023/05/09 00:45:26;;;;;;;12.52;6.38;;;;;;;;;;5024375;28;20033;-80
2023/05/09 00:47:53;;;;;;;11.65;6.30;;;;;;;;;;5016015;28;20060;-80
2023/05/09 00:50:19;;;;;;;12.88;7.97;;;;;;;;;;5031986;28;20520;-80
2023/05/09 00:52:45;;;;;;;16.08;7.78;;;;;;;;;;5034559;28;20113;-79
2023/05/09 00:55:11;;;;;;;14.77;7.15;;;;;;;;;;5048900;28;20032;-80
2023/05/09 00:57:38;;;;;;;14.85;7.68;;;;;;;;;;5047738;28;20120;-79
2023/05/09 01:00:04;;;;;;;11.23;6.28;;;;;;;;;;5033120;28;20036;-80
2023/05/09 01:02:31;;;;;;;9.63;5.22;;;;;;;;;;5023636;28;20033;-81
2023/05/09 01:04:57;;;;;;;14.80;7.57;;;;;;;;;;5024420;28;20037;-80
2023/05/09 01:07:44;;;;;;;14.73;6.22;;;12.90;99.90;;;;;;5031508;28;20029;-80
2023/05/09 01:10:10;;;;;;;10.23;5.63;;;;;;;;;;5029411;28;20409;-78
2023/05/09 01:12:49;;;;;;;13.95;7.43;;;;;;;;;;5031686;28;20025;-80
2023/05/09 01:15:33;;;;;;;14.20;6.95;;;;;;;;;;5028519;28;20104;-80
2023/05/09 01:18:03;;;;;;;9.55;5.57;;;;;;;;;;5022724;28;20041;-80
2023/05/09 01:20:39;;;;;;;11.68;6.90;;;13.10;99.90;;;;;;5026405;28;20072;-78
2023/05/09 01:23:12;;;;;;;15.63;6.55;;;;;;;;;;5024568;28;20030;-79
2023/05/09 01:25:38;;;;;;;11.77;6.77;;;;;;;;;;5018016;28;20056;-81
2023/05/09 01:28:19;;;;;;;13.00;6.85;;;;;;;;;;5022077;28;20296;-80
2023/05/09 01:30:50;;;;;;;10.63;6.22;;;13.20;99.90;;;;;;5022652;28;20018;-80
2023/05/09 01:33:18;;;;;;;12.18;5.88;;;13.00;99.90;;;;;;5022154;28;20063;-80
2023/05/09 01:35:52;;;;;;;16.13;7.72;;;13.10;99.90;;;;;;5020008;28;20417;-80
2023/05/09 01:38:21;;;;;;;11.60;6.53;;;;;;;;;;5021028;28;20620;-81
2023/05/09 01:40:50;;;;;;;13.07;6.88;;;12.90;99.90;;;;;;5025654;28;20029;-79
2023/05/09 01:43:17;;;;;;;13.93;6.00;;;;;;;;;;5030001;28;20029;-80
2023/05/09 01:45:43;;;;;;;11.15;5.93;;;;;;;;;;5025958;28;20026;-81
2023/05/09 01:48:10;;;;;;;14.25;6.68;;;;;;;;;;5012795;28;20867;-80
2023/05/09 01:50:37;;;;;;;10.82;6.57;;;;;;;;;;5022789;28;20545;-80
2023/05/09 01:53:05;;;;;;;17.27;6.45;;;;;;;;;;5026351;28;20505;-81
2023/05/09 01:55:32;;;;;;;14.32;7.13;;;;;;;;;;5022093;28;20029;-79
2023/05/09 01:57:58;;;;;;;15.93;7.25;;;;;;;;;;5031395;28;20037;-80
2023/05/09 02:00:24;;;;;;;10.90;6.28;;;;;;;;;;5025370;28;20048;-80
2023/05/09 02:02:51;;;;;;;13.52;6.53;;;12.90;99.90;;;;;;5027062;28;20105;-81
2023/05/09 02:05:18;;;;;;;10.38;6.38;;;;;;;;;;5033384;28;20644;-80
2023/05/09 02:07:46;;;;;;;13.52;6.80;;;;;;;;;;5027016;28;20025;-80
2023/05/09 02:10:12;;;;;;;12.73;5.93;;;;;;;;;;5029357;28;20080;-81
2023/05/09 02:12:39;;;;;;;10.82;5.95;;;;;;;;;;5020804;28;20026;-79
2023/05/09 02:15:05;;;;;;;12.35;6.28;;;;;;;;;;5021041;28;20044;-80
2023/05/09 02:17:31;;;;;;;12.63;6.88;;;;;;;;;;5027672;28;20044;-79
2023/05/09 02:19:57;;;;;;;13.90;6.82;;;;;;;;;;5033939;28;20071;-80
2023/05/09 02:22:23;;;;;;;13.57;6.65;;;;;;;;;;5026185;28;20041;-80
2023/05/09 02:24:50;;;;;;;16.60;6.43;;;;;;;;;;5029199;28;20032;-79
2023/05/09 02:27:16;;;;;;;12.73;6.93;;;;;;;;;;5021502;28;20117;-80
2023/05/09 02:29:44;;;;;;;12.05;6.35;;;;;;;;;;5023625;28;20072;-80
2023/05/09 02:32:12;;;;;;;12.88;7.57;;;;;;;;;;5026707;28;20064;-80
2023/05/09 02:34:38;;;;;;;13.10;7.00;;;;;;;;;;5026096;28;20055;-80
2023/05/09 02:37:05;;;;;;;13.57;6.25;;;;;;;;;;5027306;28;20037;-80
2023/05/09 02:39:31;;;;;;;15.68;6.07;;;;;;;;;;5029004;28;20025;-80
2023/05/09 02:42:05;;;;;;;10.18;5.88;;;12.80;99.90;;;;;;5024801;28;20395;-80
2023/05/09 02:44:32;;;;;;;14.13;7.65;;;;;;;;;;5013724;28;20040;-80
2023/05/09 02:46:58;;;;;;;16.58;6.32;;;;;;;;;;5021803;28;20505;-79
2023/05/09 02:49:23;;;;;;;14.55;6.38;;;;;;;;;;5034110;28;20035;-80
2023/05/09 02:51:49;;;;;;;9.82;5.80;;;;;;;;;;5024097;28;20112;-80
2023/05/09 02:54:17;;;;;;;18.48;7.50;;;;;;;;;;5027813;28;20033;-80
2023/05/09 02:56:43;;;;;;;14.20;7.05;;;;;;;;;;5022872;28;20021;-80
2023/05/09 02:59:08;;;;;;;12.18;6.78;;;;;;;;;;5019253;28;20040;-80
2023/05/09 03:01:34;;;;;;;14.55;7.13;;;;;;;;;;5027687;28;20038;-80
2023/05/09 03:04:01;;;;;;;12.90;7.05;;;;;;;;;;5026194;28;20895;-80
2023/05/09 03:06:27;;;;;;;14.02;7.85;;;;;;;;;;5024372;28;20034;-81
2023/05/09 03:08:53;;;;;;;15.50;6.97;;;;;;;;;;5024439;28;20511;-80
2023/05/09 03:11:19;;;;;;;11.77;6.80;;;;;;;;;;5024108;28;20033;-80
2023/05/09 03:13:45;;;;;;;11.93;6.10;;;;;;;;;;5019789;28;20856;-80
2023/05/09 03:16:14;;;;;;;11.70;6.20;;;;;;;;;;5020341;28;20030;-80
2023/05/09 03:18:40;;;;;;;11.60;6.30;;;;;;;;;;5020721;28;20022;-80
2023/05/09 03:21:06;;;;;;;23.83;8.23;;;12.10;99.90;;;;;;5022887;28;20029;-80
2023/05/09 03:23:32;;;;;;;11.70;6.45;;;;;;;;;;5025074;28;20037;-79
2023/05/09 03:25:58;;;;;;;13.15;7.15;;;;;;;;;;5019252;28;20021;-80
2023/05/09 03:28:24;;;;;;;9.88;5.57;;;;;;;;;;5022013;28;20513;-81
2023/05/09 03:30:50;;;;;;;14.70;6.85;;;;;;;;;;5017190;28;20091;-80
2023/05/09 03:33:16;;;;;;;15.70;7.40;;;;;;;;;;5035205;28;20029;-79
2023/05/09 03:35:42;;;;;;;13.18;6.07;;;;;;;;;;5024686;28;20084;-80
2023/05/09 03:38:08;;;;;;;13.52;6.57;;;;;;;;;;5022081;28;20025;-80
2023/05/09 03:40:34;;;;;;;14.05;6.55;;;;;;;;;;5021305;28;20032;-80
2023/05/09 03:43:00;;;;;;;15.25;6.95;;;;;;;;;;5035461;28;20038;-80
2023/05/09 03:45:26;;;;;;;15.30;7.47;;;;;;;;;;5017282;28;20034;-80
2023/05/09 03:47:52;;;;;;;11.25;5.38;;;;;;;;;;5026840;28;20044;-80
2023/05/09 03:50:18;;;;;;;13.30;7.18;;;;;;;;;;5024682;28;20049;-80
2023/05/09 03:52:44;;;;;;;14.07;6.93;;;;;;;;;;5021942;28;20041;-80
2023/05/09 03:55:10;;;;;;;13.38;6.78;;;;;;;;;;5023835;28;20477;-80
2023/05/09 03:57:36;;;;;;;13.75;7.53;;;12.00;99.90;;;;;;5022582;28;20030;-80
2023/05/09 04:00:06;;;;;;;16.85;7.68;;;;;;;;;;5021137;28;20103;-81
2023/05/09 04:02:33;;;;;;;17.08;7.25;;;;;;;;;;5024056;28;20061;-80
2023/05/09 04:05:00;;;;;;;14.00;7.10;;;;;;;;;;5022960;28;20033;-80
2023/05/09 04:07:27;;;;;;;15.95;7.75;;;;;;;;;;5024010;28;20048;-80
2023/05/09 04:09:54;;;;;;;11.75;6.60;;;;;;;;;;5027862;28;20017;-81
2023/05/09 04:12:20;;;;;;;12.65;7.18;;;;;;;;;;5025296;28;20040;-80
2023/05/09 04:14:46;;;;;;;13.55;7.15;;;;;;;;;;5018814;28;20389;-80
2023/05/09 04:17:12;;;;;;;14.10;7.15;;;;;;;;;;5018279;28;20441;-80
2023/05/09 04:19:38;;;;;;;16.33;7.45;;;;;;;;;;5026498;28;20109;-81
2023/05/09 04:22:04;;;;;;;13.63;7.35;;;;;;;;;;5025846;28;20036;-81
2023/05/09 04:24:30;;;;;;;15.10;8.50;;;;;;;;;;5016942;28;20048;-80
2023/05/09 04:26:56;;;;;;;15.85;8.00;;;;;;;;;;5023409;28;20034;-80
2023/05/09 04:29:22;;;;;;;18.25;7.03;;;;;;;;;;5020347;28;20025;-80
2023/05/09 04:31:48;;;;;;;16.27;6.70;;;;;;;;;;5018216;28;20025;-80
2023/05/09 04:34:14;;;;;;;22.17;7.80;;;;;;;;;;5020202;28;20021;-80
2023/05/09 04:36:40;;;;;;;16.95;6.70;;;;;;;;;;5026606;28;20116;-80
2023/05/09 04:39:07;;;;;;;20.75;8.38;;;;;;;;;;5024512;28;20109;-80
2023/05/09 04:41:33;;;;;;;19.38;8.23;;;;;;;;;;5017856;28;20505;-81
2023/05/09 04:43:59;;;;;;;17.77;8.05;;;;;;;;;;5019593;28;20467;-81
2023/05/09 04:46:25;;;;;;;18.10;8.38;;;;;;;;;;5017402;28;20025;-81
2023/05/09 04:48:51;;;;;;;25.55;8.73;;;;;;;;;;5026382;28;20056;-80
2023/05/09 04:51:17;;;;;;;17.75;9.85;;;;;;;;;;5018428;28;21313;-80
2023/05/09 04:53:44;;;;;;;23.35;10.00;;;;;;;;;;5001893;28;20038;-80
2023/05/09 04:56:10;;;;;;;22.10;9.52;;;;;;;;;;5037002;28;20100;-80
2023/05/09 04:58:39;;;;;;;20.90;8.63;;;;;;;;;;5030151;28;20033;-81
2023/05/09 05:01:05;;;;;;;21.05;10.55;;;13.00;99.90;;;;;;5026925;28;20034;-80
2023/05/09 05:03:31;;;;;;;20.67;9.68;;;;;;;;;;5030016;28;20391;-81
2023/05/09 05:05:57;;;;;;;24.25;8.55;;;;;;;;;;5032415;28;20040;-81
2023/05/09 05:08:23;;;;;;;22.80;9.05;;;;;;;;;;5031630;28;20040;-81
2023/05/09 05:10:49;;;;;;;14.82;7.88;;;;;;;;;;5032226;28;20033;-80
2023/05/09 05:13:15;;;;;;;13.77;7.50;;;;;;;;;;5025234;28;20225;-80
2023/05/09 05:15:41;;;;;;;14.70;8.10;;;;;;;;;;5025246;28;20247;-80
2023/05/09 05:18:08;;;;;;;13.18;8.07;;;;;;;;;;5030634;28;20108;-81
2023/05/09 05:20:34;;;;;;;22.38;9.15;;;;;;;;;;5036689;28;20401;-80
2023/05/09 05:23:00;;;;;;;16.30;7.03;;;12.70;99.90;;;;;;5034067;28;20037;-81
2023/05/09 05:25:26;;;;;;;17.50;8.35;;;;;;;;;;5021604;28;20036;-81
2023/05/09 05:27:52;;;;;;;19.20;8.25;;;;;;;;;;5022219;28;20061;-80
2023/05/09 05:30:19;;;;;;;13.23;7.72;;;;;;;;;;5024841;28;20064;-81
2023/05/09 05:32:45;;;;;;;13.70;7.53;;;;;;;;;;5020142;28;20026;-82
2023/05/09 05:35:11;;;;;;;17.30;7.85;;;;;;;;;;5024388;28;20246;-81
2023/05/09 05:37:38;;;;;;;17.80;8.10;;;;;;;;;;5029271;28;20078;-81
2023/05/09 05:40:04;;;;;;;17.95;7.93;;;;;;;;;;5034355;28;20029;-81
2023/05/09 05:42:30;;;;;;;15.10;7.95;;;13.90;99.90;;;;;;5029273;28;20104;-81
2023/05/09 05:45:00;;;;;;;16.70;8.05;;;;;;;;;;5029647;28;20116;-81
2023/05/09 05:47:26;;;;;;;14.63;7.85;;;;;;;;;;5031488;28;20025;-81
2023/05/09 05:49:51;;;;;;;16.08;7.35;;;;;;;;;;5030027;28;20088;-81
2023/05/09 05:52:17;;;;;;;13.30;7.60;;;;;;;;;;5026591;28;20045;-81
2023/05/09 05:54:43;;;;;;;13.77;7.03;;;;;;;;;;5029378;28;20060;-81
2023/05/09 05:57:09;;;;;;;13.65;6.68;;;;;;;;;;5031231;28;20029;-81
2023/05/09 05:59:35;;;;;;;12.05;6.00;;;;;;;;;;5028392;28;20034;-80
2023/05/09 06:02:01;;;;;;;15.35;6.80;;;;;;;;;;5028666;28;20448;-81
2023/05/09 06:04:27;;;;;;;13.60;6.80;;;;;;;;;;5036516;28;20040;-81
2023/05/09 06:06:53;;;;;;;15.20;6.45;;;;;;;;;;5030807;28;20033;-81
2023/05/09 06:09:20;;;;;;;13.32;6.47;;;;;;;;;;5021360;28;20401;-81
2023/05/09 06:11:46;;;;;;;19.88;6.97;;;;;;;;;;5027657;28;20029;-81
2023/05/09 06:14:13;;;;;;;13.30;6.50;;;;;;;;;;5032275;28;20143;-81
2023/05/09 06:16:39;;;;;;;13.68;5.97;;;;;;;;;;5030924;28;20032;-81
2023/05/09 06:19:05;;;;;;;13.32;7.50;;;;;;;;;;5026075;28;20884;-81
2023/05/09 06:21:33;;;;;;;13.65;6.90;;;;;;;;;;5027855;28;20497;-81
2023/05/09 06:23:59;;;;;;;16.10;7.20;;;;;;;;;;5025307;28;20029;-81
2023/05/09 06:26:25;;;;;;;13.65;7.30;;;16.20;99.90;;;;;;5031172;28;20363;-81
2023/05/09 06:28:51;;;;;;;13.10;6.50;;;;;;;;;;5014633;28;20022;-81
2023/05/09 06:31:16;;;;;;;14.70;6.57;;;16.50;99.90;;;;;;5026747;28;20029;-81
2023/05/09 06:33:42;;;;;;;16.92;7.53;;;;;;;;;;5032216;28;20038;-81
2023/05/09 06:36:08;;;;;;;12.30;5.95;;;;;;;;;;5033648;28;20030;-80
2023/05/09 06:38:34;;;;;;;10.15;5.45;;;16.50;99.90;;;;;;5033766;28;20123;-80
2023/05/09 06:41:00;;;;;;;14.07;7.38;;;;;;;;;;5049068;28;20029;-79
2023/05/09 06:43:26;;;;;;;12.32;6.07;;;16.80;99.90;;;;;;5046745;28;20072;-80
2023/05/09 06:45:52;;;;;;;10.05;5.65;;;;;;;;;;5043647;28;20021;-81
2023/05/09 06:48:18;;;;;;;11.35;6.40;;;;;;;;;;5033773;28;20033;-80
2023/05/09 06:50:44;;;;;;;12.25;6.85;;;;;;;;;;5035868;28;20017;-80
2023/05/09 06:53:10;;;;;;;10.73;5.15;;;;;;;;;;5028782;28;20037;-80
2023/05/09 06:55:36;;;;;;;9.30;5.75;;;;;;;;;;5033445;28;20436;-80
2023/05/09 06:58:02;;;;;;;10.35;5.38;;;;;;;;;;5035061;28;20026;-80
2023/05/09 07:00:28;;;;;;;11.07;5.05;;;;;;;;;;5027648;28;20323;-80
2023/05/09 07:02:54;;;;;;;10.07;5.03;;;;;;;;;;5030239;28;20041;-80
2023/05/09 07:05:20;;;;;;;9.02;5.03;;;;;;;;;;5038854;28;20034;-79
2023/05/09 07:07:46;;;;;;;9.80;4.80;;;;;;;;;;5032069;28;20068;-81
2023/05/09 07:10:12;;;;;;;7.95;4.63;;;;;;;;;;5030881;28;20029;-81
2023/05/09 07:12:40;;;;;;;6.43;3.63;;;;;;;;;;5031788;28;20034;-81
2023/05/09 07:15:06;;;;;;;6.28;3.75;;;;;;;;;;5032140;28;20053;-80
2023/05/09 07:17:33;;;;;;;6.75;4.13;;;;;;;;;;5034727;28;20450;-81
2023/05/09 07:19:58;;;;;;;7.53;3.58;;;;;;;;;;5030300;28;20022;-81
2023/05/09 07:22:24;;;;;;;7.38;3.60;;;;;;;;;;5033033;28;20074;-79
2023/05/09 07:24:50;;;;;;;6.63;3.80;;;;;;;;;;5026412;28;20086;-81
2023/05/09 07:27:16;;;;;;;5.57;2.97;;;;;;;;;;5030606;28;20030;-81
2023/05/09 07:29:44;;;;;;;5.43;3.70;;;;;;;;;;5031358;28;20033;-81
2023/05/09 07:32:10;;;;;;;5.82;3.78;;;;;;;;;;5023973;28;20024;-80
2023/05/09 07:34:35;;;;;;;8.93;3.13;;;19.50;99.90;;;;;;5026130;28;20038;-79
2023/05/09 07:37:01;;;;;;;7.40;3.35;;;;;;;;;;5032840;28;20104;-80
2023/05/09 07:39:27;;;;;;;5.72;3.53;;;;;;;;;;5026120;28;20345;-82
2023/05/09 07:41:53;;;;;;;5.50;3.33;;;;;;;;;;5018149;28;20033;-80
2023/05/09 07:44:19;;;;;;;4.55;2.63;;;;;;;;;;5028676;28;20401;-79
2023/05/09 07:46:45;;;;;;;6.53;3.45;;;;;;;;;;5026337;28;20033;-79
2023/05/09 07:49:11;;;;;;;7.93;3.38;;;;;;;;;;5027753;28;20148;-80
2023/05/09 07:51:37;;;;;;;11.48;3.25;;;;;;;;;;5028272;28;20565;-79
2023/05/09 07:54:03;;;;;;;4.60;2.92;;;;;;;;;;5006619;28;20025;-80
2023/05/09 07:56:29;;;;;;;6.25;2.92;;;;;;;;;;5030201;28;20371;-79
2023/05/09 07:58:55;;;;;;;3.20;1.95;;;;;;;;;;5029737;28;20021;-79
2023/05/09 08:01:21;;;;;;;5.57;2.92;;;;;;;;;;5023639;28;20040;-79
2023/05/09 08:03:47;;;;;;;4.50;2.75;;;;;;;;;;5026309;28;20484;-80
2023/05/09 08:06:13;;;;;;;5.70;2.50;;;;;;;;;;5029381;28;20134;-78
2023/05/09 08:08:39;;;;;;;4.85;2.55;;;;;;;;;;5030672;28;20024;-80
2023/05/09 08:11:05;;;;;;;5.28;2.20;;;;;;;;;;5024584;28;20029;-81
2023/05/09 08:13:31;;;;;;;4.88;2.78;;;;;;;;;;5023960;28;20112;-81
2023/05/09 08:15:57;;;;;;;4.00;2.35;;;;;;;;;;5027878;28;20124;-80
2023/05/09 08:18:23;;;;;;;3.38;1.92;;;;;;;;;;5024824;28;20021;-81
2023/05/09 08:20:49;;;;;;;4.82;2.35;;;;;;;;;;5029413;28;20036;-81
2023/05/09 08:23:15;;;;;;;6.43;1.98;;;;;;;;;;5029666;28;20034;-81
2023/05/09 08:25:41;;;;;;;3.88;2.05;;;;;;;;;;5028856;28;20037;-79
2023/05/09 08:28:07;;;;;;;4.35;2.03;;;;;;;;;;5024926;28;20052;-81
2023/05/09 08:30:33;;;;;;;4.63;2.40;;;;;;;;;;5027187;28;20025;-81
2023/05/09 08:32:59;;;;;;;5.38;1.85;;;;;;;;;;5027408;28;20021;-81
2023/05/09 08:35:25;;;;;;;3.70;1.67;;;;;;;;;;5024439;28;20079;-81
2023/05/09 08:37:51;;;;;;;3.63;1.92;;;;;;;;;;5022313;28;20022;-80
2023/05/09 08:40:17;;;;;;;2.60;1.92;;;;;;;;;;5025203;28;20453;-81
2023/05/09 08:42:44;;;;;;;3.92;2.13;;;27.50;64.30;;;;;;5027095;28;20437;-81
2023/05/09 08:45:15;;;;;;;5.53;2.08;;;29.50;61.60;;;;;;5028304;28;20033;-82
2023/05/09 08:47:41;;;;;;;3.58;2.00;;;;;;;;;;5040629;28;20041;-82
2023/05/09 08:50:07;;;;;;;3.38;1.90;;;;;;;;;;5031749;28;20030;-81
2023/05/09 08:52:33;;;;;;;2.55;1.58;;;;;;;;;;5037878;28;20052;-82
2023/05/09 08:55:05;;;;;;;2.47;1.30;;;30.50;49.20;;;;;;5040616;28;20100;-81
2023/05/09 08:57:33;;;;;;;4.10;1.77;;;;;;;;;;5042634;28;20025;-82
2023/05/09 08:59:59;;;;;;;3.25;1.55;;;;;;;;;;5040792;28;20029;-81
2023/05/09 09:02:25;;;;;;;3.33;1.67;;;;;;;;;;5030830;28;20037;-82
2023/05/09 09:04:51;;;;;;;4.13;1.65;;;;;;;;;;5027046;28;20412;-81
2023/05/09 09:07:18;;;;;;;4.60;1.70;;;31.80;47.30;;;;;;5030994;28;20037;-82
2023/05/09 09:09:45;;;;;;;3.63;1.85;;;31.40;48.40;;;;;;5027856;28;20067;-82
2023/05/09 09:12:11;;;;;;;4.75;2.30;;;;;;;;;;5028262;28;20490;-81
2023/05/09 09:14:39;;;;;;;2.40;1.60;;;29.80;46.50;;;;;;5030897;28;20038;-82
2023/05/09 09:17:08;;;;;;;5.32;2.35;;;28.90;49.40;;;;;;5030635;28;20058;-81
2023/05/09 09:19:35;;;;;;;3.90;2.13;;;28.00;53.10;;;;;;5027238;28;20075;-80
2023/05/09 09:22:05;;;;;;;4.70;2.72;;;27.80;55.10;;;;;;5034695;28;20112;-80
2023/05/09 09:24:32;;;;;;;4.97;2.05;;;;;;;;;;5024753;28;20037;-81
2023/05/09 09:27:05;;;;;;;3.50;2.05;;;25.90;60.40;;;;;;5026212;28;20034;-80
2023/05/09 09:29:32;;;;;;;;;;;25.10;61.90;;;;;;5033880;28;20025;-80
2023/05/09 09:32:00;;;;;;;;;;;23.60;62.10;;;;;;5024951;28;19905;-80
2023/05/09 09:34:25;;;;;;;3.65;2.10;;;24.30;75.50;;;;;;5026462;28;20396;-81
2023/05/09 09:36:51;;;;;;;6.95;2.72;;;;;;;;;;5032462;28;20038;-80
2023/05/09 09:39:17;;;;;;;4.00;2.38;;;;;;;;;;5029181;28;20030;-81
2023/05/09 09:41:43;;;;;;;5.15;2.20;;;;;;;;;;5028071;28;20505;-79
2023/05/09 09:44:19;;;;;;;9.20;2.85;;;22.20;70.40;;;;;;5033355;28;20079;-78
2023/05/09 09:46:49;;;;;;;3.28;1.70;;;23.10;72.60;;;;;;5024970;28;20035;-79
2023/05/09 09:49:23;;;;;;;3.28;2.00;;;22.50;73.30;;;;;;5028763;28;20033;-82
2023/05/09 09:51:52;;;;;;;9.82;1.77;;;22.30;70.60;;;;;;5035296;28;20108;-81
2023/05/09 09:54:18;;;;;;;3.28;1.45;;;;;;;;;;5024430;28;20055;-80
2023/05/09 09:56:45;;;;;;;2.70;1.38;;;;;;;;;;5032554;28;20026;-80
2023/05/09 09:59:15;;;;;;;3.67;1.50;;;;;;;;;;5025101;28;20551;-78
2023/05/09 10:01:57;;;;;;;2.50;1.30;;;;;;;;;;5029891;28;20060;-80
2023/05/09 10:04:25;;;;;;;3.38;1.35;;;22.00;68.00;;;;;;5033872;28;20389;-80
2023/05/09 10:06:53;;;;;;;3.38;1.45;;;22.10;66.40;;;;;;5034106;28;20113;-79
2023/05/09 10:09:19;;;;;;;2.92;1.20;;;;;;;;;;5029432;28;20382;-79
2023/05/09 10:11:47;;;;;;;3.42;1.65;;;;;;;;;;5025016;28;20168;-80
2023/05/09 10:14:13;;;;;;;3.17;1.30;;;;;;;;;;5026279;28;20029;-81
2023/05/09 10:16:41;;;;;;;3.53;1.35;;;;;;;;;;5025105;28;20018;-80
2023/05/09 10:19:08;;;;;;;2.83;1.30;;;22.30;67.80;;;;;;5031950;28;20021;-81
2023/05/09 10:21:35;;;;;;;3.45;1.73;;;22.10;66.80;;;;;;5016844;28;20033;-80
2023/05/09 10:24:03;;;;;;;1.88;0.88;;;22.00;65.20;;;;;;5031428;28;20053;-81
2023/05/09 10:26:31;;;;;;;6.85;1.42;;;;;;;;;;5025721;28;20034;-81
2023/05/09 10:29:05;;;;;;;1.98;1.00;;;21.90;66.60;;;;;;5024051;28;20030;-80
2023/05/09 10:31:34;;;;;;;3.22;1.23;;;22.10;65.90;;;;;;5026923;28;20048;-81
2023/05/09 10:34:01;;;;;;;6.57;1.60;;;;;;;;;;5028099;28;20035;-80
2023/05/09 10:36:27;;;;;;;2.28;1.45;;;;;;;;;;5025944;28;20026;-81
2023/05/09 10:38:54;;;;;;;2.08;1.13;;;;;;;;;;5032513;28;20060;-81
2023/05/09 10:41:20;;;;;;;3.88;1.10;;;;;;;;;;5031842;28;20036;-81
2023/05/09 10:43:48;;;;;;;2.58;1.38;;;;;;;;;;5030683;28;20018;-80
2023/05/09 10:46:15;;;;;;;3.80;1.33;;;;;;;;;;5017827;28;20021;-81
2023/05/09 10:48:41;;;;;;;1.40;0.77;;;22.40;65.60;;;;;;5027920;28;20030;-81
2023/05/09 10:51:08;;;;;;;2.22;1.30;;;22.40;68.90;;;;;;5028782;28;20022;-78
2023/05/09 10:53:45;;;;;;;2.38;1.20;;;26.80;70.50;;;;;;5029014;28;20482;-81
2023/05/09 10:56:25;;;;;;;1.60;0.88;;;;;;;;;;5028767;28;20029;-81
2023/05/09 10:58:51;;;;;;;2.03;1.40;;;;;;;;;;5030336;28;20029;-79
2023/05/09 11:01:29;;;;;;;6.80;2.03;;;23.90;65.40;;;;;;5029478;28;20310;-81
2023/05/09 11:03:57;;;;;;;4.47;1.55;;;22.80;67.60;;;;;;5029868;28;20037;-81
2023/05/09 11:06:44;;;;;;;1.88;1.30;;;23.20;67.70;;;;;;5031232;28;20029;-81
2023/05/09 11:09:40;;;;;;;3.10;1.10;;;23.00;68.10;;;;;;5028572;28;20104;-80
2023/05/09 11:12:13;;;;;;;2.58;1.17;;;;;;;;;;5024773;28;20038;-79
2023/05/09 11:14:43;;;;;;;1.55;0.93;;;23.00;62.40;;;;;;5025455;28;20029;-79
2023/05/09 11:17:09;;;;;;;8.05;1.15;;;;;;;;;;5024996;28;20615;-81
2023/05/09 11:19:45;;;;;;;2.75;1.27;;;24.10;64.60;;;;;;5034623;28;21231;-81
2023/05/09 11:22:19;;;;;;;1.73;0.90;;;;;;;;;;5029114;28;20034;-81
2023/05/09 11:24:46;;;;;;;1.52;0.82;;;;;;;;;;5025850;28;20590;-80
2023/05/09 11:27:14;;;;;;;6.38;1.20;;;23.80;78.80;;;;;;5034576;28;20022;-77
2023/05/09 11:29:54;;;;;;;1.98;1.27;;;23.20;65.00;;;;;;5031285;28;20022;-78
2023/05/09 11:32:21;;;;;;;2.78;1.63;;;;;;;;;;5031320;28;20029;-79
2023/05/09 11:34:47;;;;;;;2.70;1.40;;;;;;;;;;5022624;28;20477;-80
2023/05/09 11:37:15;;;;;;;2.88;1.13;;;;;;;;;;5029265;28;20030;-80
2023/05/09 11:40:04;;;;;;;2.50;1.15;;;23.20;63.10;;;;;;5031049;28;20148;-80
2023/05/09 11:42:30;;;;;;;2.67;1.10;;;22.90;67.70;;;;;;5027392;28;20029;-79
2023/05/09 11:44:57;;;;;;;6.15;1.00;;;23.80;67.90;;;;;;5020223;28;20033;-80
2023/05/09 11:47:23;;;;;;;1.52;0.88;;;;;;;;;;5023648;28;20033;-80
2023/05/09 11:49:50;;;;;;;1.20;0.75;;;;;;;;;;5020669;28;20087;-79
2023/05/09 11:52:16;;;;;;;1.90;1.02;;;;;;;;;;5023012;28;20506;-80
2023/05/09 11:54:42;;;;;;;1.85;0.93;;;;;;;;;;5024529;28;20108;-81
2023/05/09 11:57:09;;;;;;;4.63;1.20;;;;;;;;;;5018855;28;20028;-82
2023/05/09 11:59:35;;;;;;;4.55;1.52;;;;;;;;;;5019161;28;20033;-81
2023/05/09 12:02:04;;;;;;;2.47;1.10;;;;;;;;;;5018410;28;20279;-80
2023/05/09 12:04:31;;;;;;;1.55;0.80;;;22.70;70.20;;;;;;5032117;28;20084;-80
2023/05/09 12:07:00;;;;;;;2.17;1.30;;;;;;;;;;5022751;28;20033;-80
2023/05/09 12:09:31;;;;;;;2.10;0.93;;;;;;;;;;5019817;28;20054;-79
2023/05/09 12:11:58;;;;;;;2.83;1.60;;;;;;;;;;5019990;28;20030;-79
2023/05/09 12:14:28;;;;;;;2.95;1.02;;;24.10;71.40;;;;;;5025100;28;20097;-81
2023/05/09 12:16:54;;;;;;;2.40;1.27;;;;;;;;;;5023237;28;20032;-81
2023/05/09 12:19:20;;;;;;;2.42;1.45;;;;;;;;;;5009508;28;20033;-81
2023/05/09 12:21:46;;;;;;;1.92;1.05;;;;;;;;;;5020337;28;20036;-81
2023/05/09 12:24:12;;;;;;;2.25;1.27;;;;;;;;;;5024059;28;20112;-81
2023/05/09 12:26:38;;;;;;;1.80;0.98;;;23.30;88.50;;;;;;5030129;28;20026;-79
2023/05/09 12:29:05;;;;;;;3.10;1.58;;;;;;;;;;5047238;28;20025;-80
2023/05/09 12:31:31;;;;;;;2.85;1.27;;;;;;;;;;5041999;28;20081;-79
2023/05/09 12:33:57;;;;;;;1.83;1.20;;;;;;;;;;5039384;28;20037;-79
2023/05/09 12:36:23;;;;;;;1.38;0.80;;;;;;;;;;5031700;28;20036;-80
2023/05/09 12:38:55;;;;;;;14.85;1.70;;;;;;;;;;5028635;28;20040;-80
2023/05/09 12:41:23;;;;;;;4.13;1.13;;;;;;;;;;5025109;28;20095;-80
2023/05/09 12:43:52;;;;;;;2.92;1.02;;;;;;;;;;5023442;28;20845;-80
2023/05/09 12:46:19;;;;;;;2.28;0.80;;;23.00;65.90;;;;;;5024150;28;20448;-80
2023/05/09 12:48:46;;;;;;;2.30;0.98;;;;;;;;;;5026599;28;20029;-80
2023/05/09 12:51:12;;;;;;;2.10;1.13;;;;;;;;;;5029545;28;20067;-80
2023/05/09 12:53:39;;;;;;;1.70;0.80;;;22.80;67.90;;;;;;5029801;28;20527;-80
2023/05/09 12:56:15;;;;;;;2.72;0.75;;;23.70;67.80;;;;;;5020077;28;20037;-80
2023/05/09 12:58:50;;;;;;;2.97;0.90;;;23.60;64.80;;;;;;5016668;28;20390;-79
2023/05/09 13:01:16;;;;;;;2.10;0.73;;;24.00;70.30;;;;;;5032505;28;20040;-79
2023/05/09 13:03:43;;;;;;;3.60;1.08;;;;;;;;;;5025122;28;20065;-80
2023/05/09 13:06:13;;;;;;;0.98;0.70;;;23.60;71.00;;;;;;5030895;28;20517;-79
2023/05/09 13:08:39;;;;;;;1.90;0.77;;;;;;;;;;5029108;28;20124;-80
2023/05/09 13:11:06;;;;;;;1.73;1.00;;;;;;;;;;5031487;28;20463;-80
2023/05/09 13:13:32;;;;;;;2.30;1.10;;;;;;;;;;5023561;28;20068;-80
2023/05/09 13:15:58;;;;;;;2.47;1.20;;;;;;;;;;5031614;28;20029;-80
2023/05/09 13:18:24;;;;;;;1.55;0.88;;;;;;;;;;5030408;28;20037;-79
2023/05/09 13:20:50;;;;;;;2.42;0.90;;;;;;;;;;5032244;28;20037;-79
2023/05/09 13:23:16;;;;;;;2.60;0.75;;;;;;;;;;5029187;28;20388;-81
2023/05/09 13:25:43;;;;;;;1.60;0.77;;;;;;;;;;5029671;28;20516;-79
2023/05/09 13:28:09;;;;;;;1.60;0.63;;;;;;;;;;5025714;28;20061;-79
2023/05/09 13:30:35;;;;;;;4.07;0.82;;;;;;;;;;5026126;28;20044;-80
2023/05/09 13:33:01;;;;;;;1.98;0.93;;;;;;;;;;5030802;28;20490;-81
2023/05/09 13:35:27;;;;;;;3.47;0.95;;;23.40;72.10;;;;;;5030444;28;20027;-79
2023/05/09 13:37:53;;;;;;;1.83;0.75;;;;;;;;;;5032714;28;20034;-80
2023/05/09 13:40:19;;;;;;;1.98;1.10;;;;;;;;;;5029785;28;20037;-80
2023/05/09 13:42:47;;;;;;;2.00;1.05;;;;;;;;;;5029876;28;20033;-79
2023/05/09 13:45:13;;;;;;;1.52;0.82;;;;;;;;;;5024445;28;20029;-79
2023/05/09 13:47:39;;;;;;;0.90;0.60;;;;;;;;;;5025916;28;20033;-81
2023/05/09 13:50:05;;;;;;;7.50;1.08;;;;;;;;;;5026977;28;20500;-78
2023/05/09 13:52:31;;;;;;;7.03;1.13;;;;;;;;;;5028069;28;20038;-80
2023/05/09 13:54:57;;;;;;;2.33;1.38;;;;;;;;;;5029763;28;20025;-81
2023/05/09 13:57:23;;;;;;;2.33;1.27;;;;;;;;;;5028323;28;20026;-80
2023/05/09 13:59:49;;;;;;;2.72;1.30;;;;;;;;;;5027048;28;20478;-81
2023/05/09 14:02:15;;;;;;;1.67;0.70;;;;;;;;;;5028233;28;20034;-80
2023/05/09 14:04:41;;;;;;;;;;;22.70;71.80;;;;;;5026323;28;20499;-80
2023/05/09 14:07:08;;;;;;;;;;;23.60;70.80;;;;;;5027346;28;19956;-81
2023/05/09 14:09:38;;;;;;;;;;;23.20;71.50;;;;;;5027909;28;19909;-80
2023/05/09 14:12:04;;;;;;;;;;;22.90;73.60;;;;;;5030358;28;19909;-80